Observation data for Guthrie on 07/03/2020      Previous  Date  Next       Current Mesonet Observations  Soil Data  Daily Summary Page  Observations in Plain Language
KPFS 030500Z 10007KT 28/20 A2999 RMK A01 T02810197  RH  064%=      5-min Rain = 0
KPFS 030505Z 10008KT 28/20 A2999 RMK A01 T02790197  RH  065%=      5-min Rain = 0
KPFS 030510Z 10008KT 28/20 A30 RMK A01 T02780197  RH  065%=      5-min Rain = 0
KPFS 030515Z 10008KT 28/20 A30 RMK A01 T02770196  RH  065%=      5-min Rain = 0
KPFS 030520Z 11008KT 28/20 A2999 RMK A01 T02770196  RH  065%=      5-min Rain = 0
KPFS 030525Z 12008KT 28/20 A2999 RMK A01 T02760196  RH  065%=      5-min Rain = 0
KPFS 030530Z 13007KT 27/20 A2999 RMK A01 T02740195  RH  066%=      5-min Rain = 0
KPFS 030535Z 14007KT 27/20 A2999 RMK A01 T02740195  RH  066%=      5-min Rain = 0
KPFS 030540Z 14006KT 27/20 A2999 RMK A01 T02730196  RH  066%=      5-min Rain = 0
KPFS 030545Z 15005KT 27/20 A2999 RMK A01 T02710196  RH  067%=      5-min Rain = 0
KPFS 030550Z 15004KT 27/20 A2999 RMK A01 T02690196  RH  068%=      5-min Rain = 0
KPFS 030555Z 16004KT 27/20 A2998 RMK A01 T02660196  RH  069%=      5-min Rain = 0
KPFS 030600Z 15004KT 26/20 A2998 RMK A01 T02640196  RH  070%=      5-min Rain = 0
KPFS 030605Z 14004KT 26/20 A2998 RMK A01 T02630196  RH  071%=      5-min Rain = 0
KPFS 030610Z 14005KT 26/20 A2998 RMK A01 T02630197  RH  071%=      5-min Rain = 0
KPFS 030615Z 15004KT 26/20 A2998 RMK A01 T02620196  RH  071%=      5-min Rain = 0
KPFS 030620Z 15004KT 26/20 A2998 RMK A01 T02610196  RH  072%=      5-min Rain = 0
KPFS 030625Z 15004KT 26/20 A2998 RMK A01 T02600195  RH  071%=      5-min Rain = 0
KPFS 030630Z 17003KT 26/19 A2998 RMK A01 T02590194  RH  071%=      5-min Rain = 0
KPFS 030635Z 23002KT 26/20 A2998 RMK A01 T02580195  RH  072%=      5-min Rain = 0
KPFS 030640Z 21001KT 26/20 A2997 RMK A01 T02560195  RH  073%=      5-min Rain = 0
KPFS 030645Z 17001KT 26/20 A2997 RMK A01 T02550195  RH  073%=      5-min Rain = 0
KPFS 030650Z 17002KT 25/19 A2997 RMK A01 T02540193  RH  073%=      5-min Rain = 0
KPFS 030655Z 16003KT 25/19 A2997 RMK A01 T02540191  RH  072%=      5-min Rain = 0
KPFS 030700Z 17003KT 26/19 A2997 RMK A01 T02550190  RH  071%=      5-min Rain = 0
KPFS 030705Z 16003KT 26/19 A2997 RMK A01 T02560190  RH  071%=      5-min Rain = 0
KPFS 030710Z 16004KT 26/19 A2997 RMK A01 T02570189  RH  070%=      5-min Rain = 0
KPFS 030715Z 17004KT 26/19 A2997 RMK A01 T02550189  RH  071%=      5-min Rain = 0
KPFS 030720Z 17004KT 25/19 A2996 RMK A01 T02540189  RH  071%=      5-min Rain = 0
KPFS 030725Z 17003KT 25/19 A2996 RMK A01 T02520189  RH  072%=      5-min Rain = 0
KPFS 030730Z 15003KT 25/19 A2996 RMK A01 T02500189  RH  073%=      5-min Rain = 0
KPFS 030735Z 14002KT 25/19 A2996 RMK A01 T02510189  RH  072%=      5-min Rain = 0
KPFS 030740Z 14002KT 25/19 A2996 RMK A01 T02510189  RH  072%=      5-min Rain = 0
KPFS 030745Z 14002KT 25/19 A2996 RMK A01 T02520189  RH  072%=      5-min Rain = 0
KPFS 030750Z 14003KT 25/19 A2996 RMK A01 T02520189  RH  072%=      5-min Rain = 0
KPFS 030755Z 10003KT 25/19 A2997 RMK A01 T02530189  RH  071%=      5-min Rain = 0
KPFS 030800Z 08002KT 25/19 A2997 RMK A01 T02500188  RH  072%=      5-min Rain = 0
KPFS 030805Z 09003KT 25/19 A2997 RMK A01 T02480188  RH  073%=      5-min Rain = 0
KPFS 030810Z 09004KT 25/19 A2997 RMK A01 T02460188  RH  074%=      5-min Rain = 0
KPFS 030815Z 08004KT 24/19 A2997 RMK A01 T02430188  RH  075%=      5-min Rain = 0
KPFS 030820Z 10004KT 24/19 A2997 RMK A01 T02410188  RH  076%=      5-min Rain = 0
KPFS 030825Z 11005KT 24/19 A2997 RMK A01 T02440188  RH  075%=      5-min Rain = 0
KPFS 030830Z 10005KT 25/19 A2997 RMK A01 T02460188  RH  074%=      5-min Rain = 0
KPFS 030835Z 10005KT 25/19 A2997 RMK A01 T02460188  RH  074%=      5-min Rain = 0
KPFS 030840Z 08005KT 24/19 A2997 RMK A01 T02440188  RH  075%=      5-min Rain = 0
KPFS 030845Z 08005KT 24/19 A2997 RMK A01 T02420188  RH  076%=      5-min Rain = 0
KPFS 030850Z 08005KT 24/19 A2997 RMK A01 T02400187  RH  077%=      5-min Rain = 0
KPFS 030855Z 10003KT 24/19 A2997 RMK A01 T02380187  RH  077%=      5-min Rain = 0
KPFS 030900Z 13001KT 24/19 A2997 RMK A01 T02360187  RH  078%=      5-min Rain = 0
KPFS 030905Z 22000KT 23/19 A2998 RMK A01 T02340187  RH  079%=      5-min Rain = 0
KPFS 030910Z 21000KT 23/19 A2998 RMK A01 T02330187  RH  080%=      5-min Rain = 0
KPFS 030915Z 20001KT 23/19 A2998 RMK A01 T02330188  RH  080%=      5-min Rain = 0
KPFS 030920Z 00000KT 23/19 A2997 RMK A01 T02330188  RH  080%=      5-min Rain = 0
KPFS 030925Z 00000KT 23/19 A2997 RMK A01 T02330187  RH  080%=      5-min Rain = 0
KPFS 030930Z 00000KT 23/19 A2998 RMK A01 T02320187  RH  080%=      5-min Rain = 0
KPFS 030935Z 00000KT 23/19 A2998 RMK A01 T02300187  RH  081%=      5-min Rain = 0
KPFS 030940Z 30001KT 23/19 A2998 RMK A01 T02310188  RH  081%=      5-min Rain = 0
KPFS 030945Z 31000KT 23/19 A2998 RMK A01 T02320189  RH  081%=      5-min Rain = 0
KPFS 030950Z 02000KT 23/19 A2998 RMK A01 T02330189  RH  080%=      5-min Rain = 0
KPFS 030955Z 06002KT 23/19 A2999 RMK A01 T02320188  RH  081%=      5-min Rain = 0
KPFS 031000Z 06002KT 23/19 A2999 RMK A01 T02320188  RH  081%=      5-min Rain = 0
KPFS 031005Z 07003KT 23/19 A2999 RMK A01 T02310188  RH  081%=      5-min Rain = 0
KPFS 031010Z 10004KT 23/19 A2999 RMK A01 T02310188  RH  081%=      5-min Rain = 0
KPFS 031015Z 12004KT 23/19 A2999 RMK A01 T02320188  RH  081%=      5-min Rain = 0
KPFS 031020Z 13005KT 23/19 A2999 RMK A01 T02310187  RH  081%=      5-min Rain = 0
KPFS 031025Z 14006KT 23/19 A2999 RMK A01 T02280186  RH  082%=      5-min Rain = 0
KPFS 031030Z 14006KT 23/19 A2999 RMK A01 T02250186  RH  083%=      5-min Rain = 0
KPFS 031035Z 14007KT 22/19 A2999 RMK A01 T02230185  RH  084%=      5-min Rain = 0
KPFS 031040Z 14007KT 22/19 A2999 RMK A01 T02210185  RH  085%=      5-min Rain = 0
KPFS 031045Z 15007KT 22/19 A2999 RMK A01 T02200186  RH  085%=      5-min Rain = 0
KPFS 031050Z 14008KT 22/19 A2999 RMK A01 T02210187  RH  085%=      5-min Rain = 0
KPFS 031055Z 14008KT 22/19 A2999 RMK A01 T02220187  RH  085%=      5-min Rain = 0
KPFS 031100Z 14008KT 22/19 A2999 RMK A01 T02230188  RH  085%=      5-min Rain = 0
KPFS 031105Z 14009KT 22/19 A2999 RMK A01 T02230188  RH  085%=      5-min Rain = 0
KPFS 031110Z 14010KT 22/19 A2999 RMK A01 T02230187  RH  084%=      5-min Rain = 0
KPFS 031115Z 15011KT 22/19 A2999 RMK A01 T02220187  RH  085%=      5-min Rain = 0
KPFS 031120Z 15011KT 22/19 A2999 RMK A01 T02220188  RH  085%=      5-min Rain = 0
KPFS 031125Z 15011KT 22/19 A2999 RMK A01 T02240188  RH  084%=      5-min Rain = 0
KPFS 031130Z 15010KT 23/19 A2999 RMK A01 T02260187  RH  083%=      5-min Rain = 0
KPFS 031135Z 14004G9KT 23/19 A30 RMK A01 T02270186  RH  082%=      5-min Rain = 0
KPFS 031140Z 36004KT 22/18 A30 RMK A01 T02230184  RH  083%=      5-min Rain = 0
KPFS 031145Z 00003KT 22/19 A30 RMK A01 T02200185  RH  085%=      5-min Rain = 0
KPFS 031150Z 16003KT 23/19 A3001 RMK A01 T02280185  RH  081%=      5-min Rain = 0
KPFS 031155Z 16004KT 24/18 A3001 RMK A01 T02350183  RH  077%=      5-min Rain = 0
KPFS 031200Z 17004KT 23/18 A3001 RMK A01 T02330183  RH  077%=      5-min Rain = 0
KPFS 031205Z 27003KT 23/18 A3001 RMK A01 T02330183  RH  078%=      5-min Rain = 0
KPFS 031210Z 22001KT 23/18 A3001 RMK A01 T02310184  RH  079%=      5-min Rain = 0
KPFS 031215Z 16002KT 23/18 A3001 RMK A01 T02330184  RH  078%=      5-min Rain = 0
KPFS 031220Z 16004KT 24/18 A3002 RMK A01 T02360183  RH  076%=      5-min Rain = 0
KPFS 031225Z 17004KT 24/18 A3002 RMK A01 T02390183  RH  075%=      5-min Rain = 0
KPFS 031230Z 18004KT 24/18 A3002 RMK A01 T02420182  RH  073%=      5-min Rain = 0
KPFS 031235Z 20004KT 25/18 A3002 RMK A01 T02470178  RH  069%=      5-min Rain = 0
KPFS 031240Z 20003KT 25/18 A3002 RMK A01 T02500180  RH  068%=      5-min Rain = 0
KPFS 031245Z 20003KT 25/18 A3002 RMK A01 T02510180  RH  068%=      5-min Rain = 0
KPFS 031250Z 20002KT 25/18 A3002 RMK A01 T02520179  RH  067%=      5-min Rain = 0
KPFS 031255Z 19002KT 25/18 A3003 RMK A01 T02530181  RH  068%=      5-min Rain = 0
KPFS 031300Z 19002KT 25/18 A3003 RMK A01 T02530179  RH  067%=      5-min Rain = 0
KPFS 031305Z 19002KT 25/18 A3003 RMK A01 T02540180  RH  067%=      5-min Rain = 0
KPFS 031310Z 20002KT 26/18 A3003 RMK A01 T02570178  RH  065%=      5-min Rain = 0
KPFS 031315Z 20004KT 26/18 A3003 RMK A01 T02600179  RH  064%=      5-min Rain = 0
KPFS 031320Z 20006KT 26/18 A3003 RMK A01 T02640175  RH  061%=      5-min Rain = 0
KPFS 031325Z 20006KT 27/17 A3004 RMK A01 T02650174  RH  060%=      5-min Rain = 0
KPFS 031330Z 20007KT 26/17 A3004 RMK A01 T02630171  RH  060%=      5-min Rain = 0
KPFS 031335Z 20005KT 26/17 A3004 RMK A01 T02630173  RH  061%=      5-min Rain = 0
KPFS 031340Z 20005KT 26/17 A3004 RMK A01 T02640173  RH  061%=      5-min Rain = 0
KPFS 031345Z 19006KT 26/17 A3004 RMK A01 T02640171  RH  059%=      5-min Rain = 0
KPFS 031350Z 20006KT 26/17 A3004 RMK A01 T02640171  RH  059%=      5-min Rain = 0
KPFS 031355Z 20006KT 27/17 A3004 RMK A01 T02650170  RH  059%=      5-min Rain = 0
KPFS 031400Z 19007KT 27/17 A3004 RMK A01 T02650170  RH  059%=      5-min Rain = 0
KPFS 031405Z 20007KT 27/17 A3004 RMK A01 T02670170  RH  058%=      5-min Rain = 0
KPFS 031410Z 20007KT 27/17 A3004 RMK A01 T02690171  RH  058%=      5-min Rain = 0
KPFS 031415Z 20007KT 27/17 A3004 RMK A01 T02720172  RH  057%=      5-min Rain = 0
KPFS 031420Z 21009KT 28/17 A3004 RMK A01 T02770171  RH  055%=      5-min Rain = 0
KPFS 031425Z 20008KT 28/17 A3004 RMK A01 T02780171  RH  055%=      5-min Rain = 0
KPFS 031430Z 21007KT 28/17 A3004 RMK A01 T02810172  RH  054%=      5-min Rain = 0
KPFS 031435Z 21007KT 28/17 A3004 RMK A01 T02780173  RH  055%=      5-min Rain = 0
KPFS 031440Z 22008KT 28/17 A3004 RMK A01 T02830173  RH  054%=      5-min Rain = 0
KPFS 031445Z 22008KT 29/17 A3004 RMK A01 T02940173  RH  051%=      5-min Rain = 0
KPFS 031450Z 21008G13KT 29/17 A3005 RMK A01 T02930173  RH  051%=      5-min Rain = 0
KPFS 031455Z 23008KT 30/17 A3005 RMK A01 T02970173  RH  050%=      5-min Rain = 0
KPFS 031500Z 22008KT 30/17 A3005 RMK A01 T03010172  RH  048%=      5-min Rain = 0
KPFS 031505Z 22008KT 30/17 A3005 RMK A01 T02960172  RH  049%=      5-min Rain = 0
KPFS 031510Z 21009KT 30/17 A3004 RMK A01 T03000172  RH  048%=      5-min Rain = 0
KPFS 031515Z 22009KT 30/17 A3004 RMK A01 T03040172  RH  047%=      5-min Rain = 0
KPFS 031520Z 22009KT 31/17 A3004 RMK A01 T03070171  RH  046%=      5-min Rain = 0
KPFS 031525Z 22008KT 31/17 A3004 RMK A01 T03070171  RH  046%=      5-min Rain = 0
KPFS 031530Z 23007KT 31/17 A3004 RMK A01 T03050170  RH  047%=      5-min Rain = 0
KPFS 031535Z 22006KT 31/17 A3004 RMK A01 T03080172  RH  046%=      5-min Rain = 0
KPFS 031540Z 21006KT 32/17 A3004 RMK A01 T03150170  RH  044%=      5-min Rain = 0
KPFS 031545Z 22006G12KT 32/17 A3004 RMK A01 T03210171  RH  043%=      5-min Rain = 0
KPFS 031550Z 21009KT 33/17 A3004 RMK A01 T03250165  RH  040%=      5-min Rain = 0
KPFS 031555Z 21008KT 33/17 A3004 RMK A01 T03260166  RH  040%=      5-min Rain = 0
KPFS 031600Z 21007KT 33/16 A3004 RMK A01 T03260163  RH  040%=      5-min Rain = 0
KPFS 031605Z 22006G11KT 33/16 A3004 RMK A01 T03300162  RH  038%=      5-min Rain = 0
KPFS 031610Z 20008KT 33/16 A3004 RMK A01 T03310160  RH  038%=      5-min Rain = 0
KPFS 031615Z 21006KT 33/16 A3004 RMK A01 T03320162  RH  038%=      5-min Rain = 0
KPFS 031620Z 22007KT 34/16 A3004 RMK A01 T03390164  RH  037%=      5-min Rain = 0
KPFS 031625Z 23007KT 34/16 A3004 RMK A01 T03360159  RH  036%=      5-min Rain = 0
KPFS 031630Z 20006KT 34/16 A3004 RMK A01 T03390156  RH  035%=      5-min Rain = 0
KPFS 031635Z 20005KT 34/16 A3004 RMK A01 T03420155  RH  034%=      5-min Rain = 0
KPFS 031640Z 22006KT 34/16 A3004 RMK A01 T03380158  RH  036%=      5-min Rain = 0
KPFS 031645Z 22007G13KT 34/16 A3004 RMK A01 T03370162  RH  037%=      5-min Rain = 0
KPFS 031650Z 23007G12KT 34/16 A3004 RMK A01 T03420161  RH  036%=      5-min Rain = 0
KPFS 031655Z 20007KT 34/15 A3004 RMK A01 T03420153  RH  034%=      5-min Rain = 0
KPFS 031700Z 19007KT 35/15 A3004 RMK A01 T03460146  RH  032%=      5-min Rain = 0
KPFS 031705Z 21006KT 35/16 A3004 RMK A01 T03480155  RH  033%=      5-min Rain = 0
KPFS 031710Z 17007KT 35/15 A3003 RMK A01 T03490146  RH  031%=      5-min Rain = 0
KPFS 031715Z 23005KT 35/14 A3003 RMK A01 T03460139  RH  030%=      5-min Rain = 0
KPFS 031720Z 23006KT 35/14 A3003 RMK A01 T03510142  RH  030%=      5-min Rain = 0
KPFS 031725Z 24003KT 35/15 A3003 RMK A01 T03490149  RH  032%=      5-min Rain = 0
KPFS 031730Z 21003G8KT 35/15 A3003 RMK A01 T03520148  RH  031%=      5-min Rain = 0
KPFS 031735Z 18006G11KT 35/14 A3003 RMK A01 T03530137  RH  028%=      5-min Rain = 0
KPFS 031740Z 17005KT 35/14 A3003 RMK A01 T03530135  RH  028%=      5-min Rain = 0
KPFS 031745Z 15004KT 36/14 A3003 RMK A01 T03550137  RH  028%=      5-min Rain = 0
KPFS 031750Z 16006G11KT 36/14 A3003 RMK A01 T03560138  RH  028%=      5-min Rain = 0
KPFS 031755Z 18006G11KT 36/13 A3003 RMK A01 T03590134  RH  027%=      5-min Rain = 0
KPFS 031800Z 19005G12KT 36/14 A3002 RMK A01 T03590138  RH  028%=      5-min Rain = 0
KPFS 031805Z 17008G15KT 36/14 A3002 RMK A01 T03600139  RH  028%=      5-min Rain = 0
KPFS 031810Z 15007G14KT 36/14 A3002 RMK A01 T03580137  RH  028%=      5-min Rain = 0
KPFS 031815Z 17002KT 36/14 A3002 RMK A01 T03590137  RH  028%=      5-min Rain = 0
KPFS 031820Z 17003G8KT 36/14 A3002 RMK A01 T03600138  RH  028%=      5-min Rain = 0
KPFS 031825Z 13008G13KT 37/14 A3002 RMK A01 T03690135  RH  026%=      5-min Rain = 0
KPFS 031830Z 15006G11KT 36/13 A3001 RMK A01 T03640131  RH  026%=      5-min Rain = 0
KPFS 031835Z 12003G9KT 36/14 A3001 RMK A01 T03580135  RH  027%=      5-min Rain = 0
KPFS 031840Z 15009G16KT 36/13 A3001 RMK A01 T03630131  RH  026%=      5-min Rain = 0
KPFS 031845Z 13007G12KT 36/13 A3001 RMK A01 T03620130  RH  026%=      5-min Rain = 0
KPFS 031850Z 12008G16KT 37/13 A3001 RMK A01 T03660131  RH  025%=      5-min Rain = 0
KPFS 031855Z 16011KT 37/13 A30 RMK A01 T03680130  RH  025%=      5-min Rain = 0
KPFS 031900Z 17006G11KT 37/13 A3001 RMK A01 T03660128  RH  025%=      5-min Rain = 0
KPFS 031905Z 15005G10KT 37/13 A3001 RMK A01 T03660128  RH  025%=      5-min Rain = 0
KPFS 031910Z 16009G15KT 37/13 A30 RMK A01 T03680130  RH  025%=      5-min Rain = 0
KPFS 031915Z 15011G18KT 37/13 A30 RMK A01 T03670127  RH  025%=      5-min Rain = 0
KPFS 031920Z 14008KT 37/13 A30 RMK A01 T03680134  RH  026%=      5-min Rain = 0
KPFS 031925Z 17005G14KT 37/13 A30 RMK A01 T03660133  RH  026%=      5-min Rain = 0
KPFS 031930Z 13008KT 37/13 A30 RMK A01 T03700134  RH  026%=      5-min Rain = 0
KPFS 031935Z 16008KT 37/14 A30 RMK A01 T03670135  RH  026%=      5-min Rain = 0
KPFS 031940Z 19008KT 37/14 A30 RMK A01 T03690135  RH  026%=      5-min Rain = 0
KPFS 031945Z 15007G14KT 37/13 A30 RMK A01 T03650134  RH  026%=      5-min Rain = 0
KPFS 031950Z 12009G17KT 36/13 A30 RMK A01 T03550133  RH  028%=      5-min Rain = 0
KPFS 031955Z 13008KT 36/13 A30 RMK A01 T03630134  RH  027%=      5-min Rain = 0
KPFS 032000Z 16008KT 37/14 A2999 RMK A01 T03720135  RH  025%=      5-min Rain = 0
KPFS 032005Z 19008G13KT 37/14 A2999 RMK A01 T03710137  RH  026%=      5-min Rain = 0
KPFS 032010Z 16009G15KT 37/14 A2999 RMK A01 T03700137  RH  026%=      5-min Rain = 0
KPFS 032015Z 13011G18KT 36/13 A2999 RMK A01 T03640134  RH  026%=      5-min Rain = 0
KPFS 032020Z 13008KT 37/13 A2999 RMK A01 T03680133  RH  026%=      5-min Rain = 0
KPFS 032025Z 14009G16KT 37/13 A2999 RMK A01 T03690129  RH  025%=      5-min Rain = 0
KPFS 032030Z 14008G13KT 37/13 A2999 RMK A01 T03680125  RH  024%=      5-min Rain = 0
KPFS 032035Z 11006G15KT 37/12 A2999 RMK A01 T03680123  RH  024%=      5-min Rain = 0
KPFS 032040Z 11005G11KT 37/12 A2998 RMK A01 T03710120  RH  023%=      5-min Rain = 0
KPFS 032045Z 17008KT 37/12 A2998 RMK A01 T03740119  RH  023%=      5-min Rain = 0
KPFS 032050Z 17003G9KT 37/12 A2998 RMK A01 T03710118  RH  023%=      5-min Rain = 0
KPFS 032055Z 15009G15KT 37/12 A2998 RMK A01 T03710116  RH  022%=      5-min Rain = 0
KPFS 032100Z 16009KT 37/10 A2998 RMK A01 T03720103  RH  020%=      5-min Rain = 0
KPFS 032105Z 14007G13KT 37/11 A2998 RMK A01 T03660113  RH  022%=      5-min Rain = 0
KPFS 032110Z 20006KT 37/11 A2997 RMK A01 T03700107  RH  021%=      5-min Rain = 0
KPFS 032115Z 13009KT 37/12 A2997 RMK A01 T03740117  RH  022%=      5-min Rain = 0
KPFS 032120Z 11008KT 38/12 A2997 RMK A01 T03770124  RH  023%=      5-min Rain = 0
KPFS 032125Z 14008G15KT 38/12 A2997 RMK A01 T03770120  RH  022%=      5-min Rain = 0
KPFS 032130Z 16009KT 38/12 A2997 RMK A01 T03780123  RH  023%=      5-min Rain = 0
KPFS 032135Z 12007KT 38/12 A2996 RMK A01 T03770123  RH  023%=      5-min Rain = 0
KPFS 032140Z 16012G17KT 37/13 A2996 RMK A01 T03700127  RH  024%=      5-min Rain = 0
KPFS 032145Z 18006G11KT 38/13 A2996 RMK A01 T03750128  RH  024%=      5-min Rain = 0
KPFS 032150Z 14008KT 38/13 A2996 RMK A01 T03770127  RH  023%=      5-min Rain = 0
KPFS 032155Z 14011G17KT 38/13 A2996 RMK A01 T03750128  RH  024%=      5-min Rain = 0
KPFS 032200Z 15009KT 37/13 A2995 RMK A01 T03740130  RH  024%=      5-min Rain = 0
KPFS 032205Z 15008G15KT 38/13 A2995 RMK A01 T03760126  RH  023%=      5-min Rain = 0
KPFS 032210Z 14006G13KT 37/12 A2995 RMK A01 T03740124  RH  023%=      5-min Rain = 0
KPFS 032215Z 16008G13KT 37/12 A2995 RMK A01 T03720124  RH  024%=      5-min Rain = 0
KPFS 032220Z 15009KT 38/12 A2995 RMK A01 T03750124  RH  023%=      5-min Rain = 0
KPFS 032225Z 16008G13KT 38/12 A2995 RMK A01 T03760123  RH  023%=      5-min Rain = 0
KPFS 032230Z 18009G14KT 37/12 A2995 RMK A01 T03740122  RH  023%=      5-min Rain = 0
KPFS 032235Z 16010G15KT 38/12 A2995 RMK A01 T03750123  RH  023%=      5-min Rain = 0
KPFS 032240Z 17008G15KT 37/13 A2995 RMK A01 T03720127  RH  024%=      5-min Rain = 0
KPFS 032245Z 14007G12KT 37/13 A2995 RMK A01 T03740128  RH  024%=      5-min Rain = 0
KPFS 032250Z 17008G13KT 37/13 A2994 RMK A01 T03680127  RH  025%=      5-min Rain = 0
KPFS 032255Z 15007KT 36/13 A2994 RMK A01 T03620126  RH  025%=      5-min Rain = 0
KPFS 032300Z 14006KT 37/13 A2994 RMK A01 T03680130  RH  025%=      5-min Rain = 0
KPFS 032305Z 12008G14KT 37/13 A2994 RMK A01 T03690127  RH  025%=      5-min Rain = 0
KPFS 032310Z 11011KT 36/13 A2994 RMK A01 T03640127  RH  025%=      5-min Rain = 0
KPFS 032315Z 11010KT 37/13 A2994 RMK A01 T03680128  RH  025%=      5-min Rain = 0
KPFS 032320Z 12011KT 37/13 A2993 RMK A01 T03680128  RH  025%=      5-min Rain = 0
KPFS 032325Z 12011KT 37/13 A2994 RMK A01 T03680128  RH  025%=      5-min Rain = 0
KPFS 032330Z 12011KT 37/13 A2994 RMK A01 T03650127  RH  025%=      5-min Rain = 0
KPFS 032335Z 13011KT 36/13 A2994 RMK A01 T03610127  RH  025%=      5-min Rain = 0
KPFS 032340Z 12010KT 36/13 A2993 RMK A01 T03560127  RH  026%=      5-min Rain = 0
KPFS 032345Z 13011KT 36/13 A2993 RMK A01 T03580127  RH  026%=      5-min Rain = 0
KPFS 032350Z 12010KT 36/13 A2993 RMK A01 T03600128  RH  026%=      5-min Rain = 0
KPFS 032355Z 13010G15KT 36/13 A2993 RMK A01 T03620129  RH  026%=      5-min Rain = 0
KPFS 040000Z 14010G16KT 36/13 A2993 RMK A01 T03600129  RH  026%=      5-min Rain = 0
KPFS 040005Z 14009KT 36/13 A2993 RMK A01 T03610129  RH  026%=      5-min Rain = 0
KPFS 040010Z 13011KT 36/13 A2993 RMK A01 T03600129  RH  026%=      5-min Rain = 0
KPFS 040015Z 14011G16KT 36/13 A2993 RMK A01 T03590132  RH  027%=      5-min Rain = 0
KPFS 040020Z 13011KT 36/13 A2993 RMK A01 T03570132  RH  027%=      5-min Rain = 0
KPFS 040025Z 15011KT 36/13 A2993 RMK A01 T03560131  RH  027%=      5-min Rain = 0
KPFS 040030Z 15010KT 36/13 A2993 RMK A01 T03550132  RH  027%=      5-min Rain = 0
KPFS 040035Z 15009G14KT 35/13 A2994 RMK A01 T03540132  RH  027%=      5-min Rain = 0
KPFS 040040Z 16008KT 35/13 A2994 RMK A01 T03540132  RH  028%=      5-min Rain = 0
KPFS 040045Z 14009KT 35/13 A2994 RMK A01 T03530132  RH  028%=      5-min Rain = 0
KPFS 040050Z 14010KT 35/13 A2994 RMK A01 T03520132  RH  028%=      5-min Rain = 0
KPFS 040055Z 15010KT 35/13 A2994 RMK A01 T03500134  RH  028%=      5-min Rain = 0
KPFS 040100Z 15010KT 35/13 A2994 RMK A01 T03490133  RH  028%=      5-min Rain = 0
KPFS 040105Z 14009G14KT 35/13 A2995 RMK A01 T03470132  RH  029%=      5-min Rain = 0
KPFS 040110Z 13009KT 35/13 A2995 RMK A01 T03460132  RH  029%=      5-min Rain = 0
KPFS 040115Z 14008KT 34/13 A2995 RMK A01 T03440133  RH  029%=      5-min Rain = 0
KPFS 040120Z 13008KT 34/13 A2994 RMK A01 T03420134  RH  030%=      5-min Rain = 0
KPFS 040125Z 13008KT 34/14 A2995 RMK A01 T03400135  RH  030%=      5-min Rain = 0
KPFS 040130Z 13008KT 34/13 A2995 RMK A01 T03380134  RH  030%=      5-min Rain = 0
KPFS 040135Z 13007KT 34/13 A2995 RMK A01 T03360134  RH  031%=      5-min Rain = 0
KPFS 040140Z 13007KT 33/14 A2995 RMK A01 T03330135  RH  031%=      5-min Rain = 0
KPFS 040145Z 13006KT 33/14 A2995 RMK A01 T03300136  RH  032%=      5-min Rain = 0
KPFS 040150Z 12006KT 33/14 A2996 RMK A01 T03260136  RH  033%=      5-min Rain = 0
KPFS 040155Z 12006KT 32/14 A2996 RMK A01 T03240137  RH  034%=      5-min Rain = 0
KPFS 040200Z 12006KT 32/14 A2996 RMK A01 T03210137  RH  034%=      5-min Rain = 0
KPFS 040205Z 12006KT 32/14 A2996 RMK A01 T03180137  RH  035%=      5-min Rain = 0
KPFS 040210Z 12006KT 32/14 A2996 RMK A01 T03160137  RH  035%=      5-min Rain = 0
KPFS 040215Z 12007KT 31/14 A2996 RMK A01 T03140136  RH  035%=      5-min Rain = 0
KPFS 040220Z 12007KT 31/14 A2996 RMK A01 T03120136  RH  036%=      5-min Rain = 0
KPFS 040225Z 12007KT 31/14 A2996 RMK A01 T03110136  RH  036%=      5-min Rain = 0
KPFS 040230Z 13007KT 31/14 A2996 RMK A01 T03090136  RH  036%=      5-min Rain = 0
KPFS 040235Z 13007KT 31/14 A2996 RMK A01 T03070137  RH  037%=      5-min Rain = 0
KPFS 040240Z 13008KT 30/14 A2996 RMK A01 T03030138  RH  038%=      5-min Rain = 0
KPFS 040245Z 13008KT 30/14 A2996 RMK A01 T03020138  RH  038%=      5-min Rain = 0
KPFS 040250Z 13008KT 30/14 A2996 RMK A01 T03010139  RH  039%=      5-min Rain = 0
KPFS 040255Z 13008KT 30/14 A2997 RMK A01 T03000139  RH  039%=      5-min Rain = 0
KPFS 040300Z 12008KT 30/14 A2997 RMK A01 T02990139  RH  039%=      5-min Rain = 0
KPFS 040305Z 12007KT 30/14 A2997 RMK A01 T02970140  RH  040%=      5-min Rain = 0
KPFS 040310Z 12007KT 30/14 A2998 RMK A01 T02960140  RH  040%=      5-min Rain = 0
KPFS 040315Z 12007KT 30/14 A2998 RMK A01 T02960141  RH  040%=      5-min Rain = 0
KPFS 040320Z 12008KT 30/14 A2998 RMK A01 T02970142  RH  040%=      5-min Rain = 0
KPFS 040325Z 12008KT 30/14 A2998 RMK A01 T02980144  RH  041%=      5-min Rain = 0
KPFS 040330Z 12008KT 30/15 A2999 RMK A01 T02980145  RH  041%=      5-min Rain = 0
KPFS 040335Z 13008KT 30/15 A2999 RMK A01 T02980146  RH  041%=      5-min Rain = 0
KPFS 040340Z 13007KT 30/15 A2999 RMK A01 T02970147  RH  042%=      5-min Rain = 0
KPFS 040345Z 13007KT 30/15 A2999 RMK A01 T02960149  RH  043%=      5-min Rain = 0
KPFS 040350Z 13007KT 29/15 A2999 RMK A01 T02940150  RH  043%=      5-min Rain = 0
KPFS 040355Z 13007KT 29/15 A2999 RMK A01 T02940151  RH  044%=      5-min Rain = 0
KPFS 040400Z 13007KT 29/15 A30 RMK A01 T02930152  RH  044%=      5-min Rain = 0
KPFS 040405Z 13007KT 29/15 A30 RMK A01 T02910153  RH  045%=      5-min Rain = 0
KPFS 040410Z 13007KT 29/15 A30 RMK A01 T02900154  RH  046%=      5-min Rain = 0
KPFS 040415Z 12008KT 29/15 A30 RMK A01 T02880154  RH  046%=      5-min Rain = 0
KPFS 040420Z 12008KT 29/16 A30 RMK A01 T02870155  RH  047%=      5-min Rain = 0
KPFS 040425Z 12008KT 29/16 A30 RMK A01 T02870156  RH  047%=      5-min Rain = 0
KPFS 040430Z 13008KT 29/16 A30 RMK A01 T02860156  RH  047%=      5-min Rain = 0
KPFS 040435Z 13008KT 29/16 A30 RMK A01 T02870157  RH  048%=      5-min Rain = 0
KPFS 040440Z 13008KT 29/16 A2999 RMK A01 T02860158  RH  048%=      5-min Rain = 0
KPFS 040445Z 12007KT 28/16 A2999 RMK A01 T02840159  RH  049%=      5-min Rain = 0
KPFS 040450Z 12007KT 28/16 A2999 RMK A01 T02810159  RH  050%=      5-min Rain = 0
KPFS 040455Z 12007KT 28/16 A2999 RMK A01 T02800159  RH  050%=      5-min Rain = 0

Page generated in 0.0093 seconds.